sensor_id;sensor_type;location;lat;lon;timestamp;P1;durP1;ratioP1;P2;durP2;ratioP2
37903;SDS011;23738;50.422;18.758;2023-06-22T00:00:15;10.10;;;9.10;;
37903;SDS011;23738;50.422;18.758;2023-06-22T00:02:42;10.60;;;9.70;;
37903;SDS011;23738;50.422;18.758;2023-06-22T00:05:10;10.90;;;9.90;;
37903;SDS011;23738;50.422;18.758;2023-06-22T00:07:37;11.40;;;10.20;;
37903;SDS011;23738;50.422;18.758;2023-06-22T00:10:05;14.50;;;12.40;;
37903;SDS011;23738;50.422;18.758;2023-06-22T00:12:34;13.70;;;9.50;;
37903;SDS011;23738;50.422;18.758;2023-06-22T00:15:01;11.40;;;10.30;;
37903;SDS011;23738;50.422;18.758;2023-06-22T00:17:29;11.10;;;9.60;;
37903;SDS011;23738;50.422;18.758;2023-06-22T00:19:56;10.10;;;9.30;;
37903;SDS011;23738;50.422;18.758;2023-06-22T00:22:24;11.70;;;10.50;;
37903;SDS011;23738;50.422;18.758;2023-06-22T00:24:54;10.90;;;10.00;;
37903;SDS011;23738;50.422;18.758;2023-06-22T00:27:21;11.20;;;10.20;;
37903;SDS011;23738;50.422;18.758;2023-06-22T00:29:48;11.80;;;9.90;;
37903;SDS011;23738;50.422;18.758;2023-06-22T00:32:16;12.20;;;10.70;;
37903;SDS011;23738;50.422;18.758;2023-06-22T00:34:44;10.70;;;9.60;;
37903;SDS011;23738;50.422;18.758;2023-06-22T00:37:11;10.60;;;9.60;;
37903;SDS011;23738;50.422;18.758;2023-06-22T00:39:39;11.60;;;10.30;;
37903;SDS011;23738;50.422;18.758;2023-06-22T00:42:06;11.50;;;10.40;;
37903;SDS011;23738;50.422;18.758;2023-06-22T00:44:34;11.50;;;10.40;;
37903;SDS011;23738;50.422;18.758;2023-06-22T00:47:01;10.70;;;9.60;;
37903;SDS011;23738;50.422;18.758;2023-06-22T00:49:29;17.00;;;11.40;;
37903;SDS011;23738;50.422;18.758;2023-06-22T00:51:57;14.40;;;11.80;;
37903;SDS011;23738;50.422;18.758;2023-06-22T00:54:25;13.90;;;11.00;;
37903;SDS011;23738;50.422;18.758;2023-06-22T00:56:54;14.70;;;12.90;;
37903;SDS011;23738;50.422;18.758;2023-06-22T00:59:23;17.50;;;13.10;;
37903;SDS011;23738;50.422;18.758;2023-06-22T01:01:52;14.80;;;13.30;;
37903;SDS011;23738;50.422;18.758;2023-06-22T01:04:19;17.60;;;14.80;;
37903;SDS011;23738;50.422;18.758;2023-06-22T01:06:50;15.90;;;11.10;;
37903;SDS011;23738;50.422;18.758;2023-06-22T01:09:26;13.30;;;11.70;;
37903;SDS011;23738;50.422;18.758;2023-06-22T01:11:59;15.00;;;12.70;;
37903;SDS011;23738;50.422;18.758;2023-06-22T01:14:32;16.20;;;12.00;;
37903;SDS011;23738;50.422;18.758;2023-06-22T01:17:07;12.10;;;10.70;;
37903;SDS011;23738;50.422;18.758;2023-06-22T01:19:43;13.30;;;10.70;;
37903;SDS011;23738;50.422;18.758;2023-06-22T01:22:13;13.00;;;10.50;;
37903;SDS011;23738;50.422;18.758;2023-06-22T01:24:48;12.70;;;11.50;;
37903;SDS011;23738;50.422;18.758;2023-06-22T01:27:28;12.90;;;11.10;;
37903;SDS011;23738;50.422;18.758;2023-06-22T01:30:07;15.90;;;11.10;;
37903;SDS011;23738;50.422;18.758;2023-06-22T01:32:37;13.10;;;11.90;;
37903;SDS011;23738;50.422;18.758;2023-06-22T01:35:07;13.00;;;11.80;;
37903;SDS011;23738;50.422;18.758;2023-06-22T01:37:36;13.70;;;12.40;;
37903;SDS011;23738;50.422;18.758;2023-06-22T01:40:06;11.10;;;10.00;;
37903;SDS011;23738;50.422;18.758;2023-06-22T01:42:35;10.80;;;9.80;;
37903;SDS011;23738;50.422;18.758;2023-06-22T01:45:05;12.70;;;11.50;;
37903;SDS011;23738;50.422;18.758;2023-06-22T01:47:35;11.70;;;10.60;;
37903;SDS011;23738;50.422;18.758;2023-06-22T01:50:03;14.40;;;12.90;;
37903;SDS011;23738;50.422;18.758;2023-06-22T01:52:33;13.20;;;11.10;;
37903;SDS011;23738;50.422;18.758;2023-06-22T01:55:00;12.40;;;11.30;;
37903;SDS011;23738;50.422;18.758;2023-06-22T01:57:27;11.40;;;10.30;;
37903;SDS011;23738;50.422;18.758;2023-06-22T01:59:58;12.80;;;11.70;;
37903;SDS011;23738;50.422;18.758;2023-06-22T02:02:28;14.90;;;13.50;;
37903;SDS011;23738;50.422;18.758;2023-06-22T02:05:03;15.20;;;13.00;;
37903;SDS011;23738;50.422;18.758;2023-06-22T02:07:33;12.70;;;11.50;;
37903;SDS011;23738;50.422;18.758;2023-06-22T02:10:05;14.40;;;11.50;;
37903;SDS011;23738;50.422;18.758;2023-06-22T02:12:38;13.50;;;12.30;;
37903;SDS011;23738;50.422;18.758;2023-06-22T02:15:08;13.10;;;11.90;;
37903;SDS011;23738;50.422;18.758;2023-06-22T02:17:38;12.60;;;11.40;;
37903;SDS011;23738;50.422;18.758;2023-06-22T02:20:12;18.90;;;12.20;;
37903;SDS011;23738;50.422;18.758;2023-06-22T02:22:40;18.70;;;13.80;;
37903;SDS011;23738;50.422;18.758;2023-06-22T02:25:08;15.30;;;13.80;;
37903;SDS011;23738;50.422;18.758;2023-06-22T02:27:36;14.10;;;12.90;;
37903;SDS011;23738;50.422;18.758;2023-06-22T02:30:07;15.80;;;13.80;;
37903;SDS011;23738;50.422;18.758;2023-06-22T02:32:35;14.70;;;13.10;;
37903;SDS011;23738;50.422;18.758;2023-06-22T02:35:03;16.10;;;14.80;;
37903;SDS011;23738;50.422;18.758;2023-06-22T02:37:32;14.20;;;12.90;;
37903;SDS011;23738;50.422;18.758;2023-06-22T02:39:59;13.90;;;12.60;;
37903;SDS011;23738;50.422;18.758;2023-06-22T02:42:27;13.90;;;12.50;;
37903;SDS011;23738;50.422;18.758;2023-06-22T02:44:54;17.70;;;14.50;;
37903;SDS011;23738;50.422;18.758;2023-06-22T02:47:22;15.10;;;13.70;;
37903;SDS011;23738;50.422;18.758;2023-06-22T02:49:49;15.20;;;13.90;;
37903;SDS011;23738;50.422;18.758;2023-06-22T02:52:16;16.30;;;14.60;;
37903;SDS011;23738;50.422;18.758;2023-06-22T02:54:44;16.70;;;15.20;;
37903;SDS011;23738;50.422;18.758;2023-06-22T02:57:11;15.70;;;14.00;;
37903;SDS011;23738;50.422;18.758;2023-06-22T02:59:39;15.20;;;13.80;;
37903;SDS011;23738;50.422;18.758;2023-06-22T03:02:07;17.30;;;15.40;;
37903;SDS011;23738;50.422;18.758;2023-06-22T03:04:35;17.40;;;15.30;;
37903;SDS011;23738;50.422;18.758;2023-06-22T03:07:02;16.90;;;13.80;;
37903;SDS011;23738;50.422;18.758;2023-06-22T03:09:30;16.70;;;11.70;;
37903;SDS011;23738;50.422;18.758;2023-06-22T03:11:58;13.30;;;12.10;;
37903;SDS011;23738;50.422;18.758;2023-06-22T03:14:25;14.40;;;12.80;;
37903;SDS011;23738;50.422;18.758;2023-06-22T03:16:52;13.10;;;11.70;;
37903;SDS011;23738;50.422;18.758;2023-06-22T03:19:20;12.10;;;11.00;;
37903;SDS011;23738;50.422;18.758;2023-06-22T03:21:47;12.90;;;11.00;;
37903;SDS011;23738;50.422;18.758;2023-06-22T03:24:14;12.20;;;10.90;;
37903;SDS011;23738;50.422;18.758;2023-06-22T03:26:42;12.00;;;10.80;;
37903;SDS011;23738;50.422;18.758;2023-06-22T03:29:12;14.60;;;11.20;;
37903;SDS011;23738;50.422;18.758;2023-06-22T03:31:39;12.70;;;11.30;;
37903;SDS011;23738;50.422;18.758;2023-06-22T03:34:06;14.60;;;12.00;;
37903;SDS011;23738;50.422;18.758;2023-06-22T03:36:34;11.70;;;10.60;;
37903;SDS011;23738;50.422;18.758;2023-06-22T03:39:09;16.20;;;13.30;;
37903;SDS011;23738;50.422;18.758;2023-06-22T03:41:36;17.90;;;12.10;;
37903;SDS011;23738;50.422;18.758;2023-06-22T03:44:04;11.70;;;9.60;;
37903;SDS011;23738;50.422;18.758;2023-06-22T03:46:31;17.50;;;12.20;;
37903;SDS011;23738;50.422;18.758;2023-06-22T03:48:59;16.00;;;11.50;;
37903;SDS011;23738;50.422;18.758;2023-06-22T03:51:27;14.60;;;11.50;;
37903;SDS011;23738;50.422;18.758;2023-06-22T03:53:54;14.80;;;11.80;;
37903;SDS011;23738;50.422;18.758;2023-06-22T03:56:22;19.10;;;11.60;;
37903;SDS011;23738;50.422;18.758;2023-06-22T03:58:49;13.50;;;12.00;;
37903;SDS011;23738;50.422;18.758;2023-06-22T04:01:16;20.30;;;12.70;;
37903;SDS011;23738;50.422;18.758;2023-06-22T04:03:44;20.60;;;15.90;;
37903;SDS011;23738;50.422;18.758;2023-06-22T04:06:14;26.60;;;18.00;;
37903;SDS011;23738;50.422;18.758;2023-06-22T04:08:41;23.00;;;19.60;;
37903;SDS011;23738;50.422;18.758;2023-06-22T04:11:13;23.80;;;18.70;;
37903;SDS011;23738;50.422;18.758;2023-06-22T04:13:41;21.00;;;18.40;;
37903;SDS011;23738;50.422;18.758;2023-06-22T04:16:08;24.60;;;18.50;;
37903;SDS011;23738;50.422;18.758;2023-06-22T04:18:35;21.90;;;19.70;;
37903;SDS011;23738;50.422;18.758;2023-06-22T04:21:03;22.70;;;20.40;;
37903;SDS011;23738;50.422;18.758;2023-06-22T04:23:30;23.70;;;20.70;;
37903;SDS011;23738;50.422;18.758;2023-06-22T04:25:58;22.50;;;20.00;;
37903;SDS011;23738;50.422;18.758;2023-06-22T04:28:25;21.50;;;19.60;;
37903;SDS011;23738;50.422;18.758;2023-06-22T04:30:52;25.10;;;20.00;;
37903;SDS011;23738;50.422;18.758;2023-06-22T04:33:24;23.10;;;20.70;;
37903;SDS011;23738;50.422;18.758;2023-06-22T04:35:51;23.10;;;21.00;;
37903;SDS011;23738;50.422;18.758;2023-06-22T04:38:18;25.10;;;22.20;;
37903;SDS011;23738;50.422;18.758;2023-06-22T04:40:47;26.80;;;24.30;;
37903;SDS011;23738;50.422;18.758;2023-06-22T04:43:14;23.50;;;21.10;;
37903;SDS011;23738;50.422;18.758;2023-06-22T04:45:41;24.70;;;22.30;;
37903;SDS011;23738;50.422;18.758;2023-06-22T04:48:09;23.00;;;20.90;;
37903;SDS011;23738;50.422;18.758;2023-06-22T04:50:38;23.40;;;20.80;;
37903;SDS011;23738;50.422;18.758;2023-06-22T04:53:06;25.10;;;22.50;;
37903;SDS011;23738;50.422;18.758;2023-06-22T04:55:35;24.50;;;22.10;;
37903;SDS011;23738;50.422;18.758;2023-06-22T04:58:03;24.40;;;22.10;;
37903;SDS011;23738;50.422;18.758;2023-06-22T05:00:31;22.70;;;20.90;;
37903;SDS011;23738;50.422;18.758;2023-06-22T05:03:02;23.10;;;21.00;;
37903;SDS011;23738;50.422;18.758;2023-06-22T05:05:29;23.70;;;21.20;;
37903;SDS011;23738;50.422;18.758;2023-06-22T05:07:56;23.00;;;21.10;;
37903;SDS011;23738;50.422;18.758;2023-06-22T05:10:26;23.90;;;21.50;;
37903;SDS011;23738;50.422;18.758;2023-06-22T05:12:53;24.80;;;22.20;;
37903;SDS011;23738;50.422;18.758;2023-06-22T05:15:20;22.50;;;20.40;;
37903;SDS011;23738;50.422;18.758;2023-06-22T05:17:52;22.60;;;20.70;;
37903;SDS011;23738;50.422;18.758;2023-06-22T05:20:19;21.80;;;20.20;;
37903;SDS011;23738;50.422;18.758;2023-06-22T05:22:47;22.30;;;20.00;;
37903;SDS011;23738;50.422;18.758;2023-06-22T05:25:15;23.30;;;21.10;;
37903;SDS011;23738;50.422;18.758;2023-06-22T05:27:42;21.30;;;19.50;;
37903;SDS011;23738;50.422;18.758;2023-06-22T05:30:10;21.30;;;19.50;;
37903;SDS011;23738;50.422;18.758;2023-06-22T05:54:07;18.60;;;17.10;;
37903;SDS011;23738;50.422;18.758;2023-06-22T05:56:35;19.20;;;17.80;;
37903;SDS011;23738;50.422;18.758;2023-06-22T05:59:03;16.90;;;15.80;;
37903;SDS011;23738;50.422;18.758;2023-06-22T06:01:31;22.00;;;16.20;;
37903;SDS011;23738;50.422;18.758;2023-06-22T06:04:00;17.00;;;15.60;;
37903;SDS011;23738;50.422;18.758;2023-06-22T06:06:27;14.20;;;13.00;;
37903;SDS011;23738;50.422;18.758;2023-06-22T06:08:55;14.20;;;13.30;;
37903;SDS011;23738;50.422;18.758;2023-06-22T06:11:22;13.00;;;12.00;;
37903;SDS011;23738;50.422;18.758;2023-06-22T06:13:50;11.60;;;10.80;;
37903;SDS011;23738;50.422;18.758;2023-06-22T06:16:17;11.00;;;10.20;;
37903;SDS011;23738;50.422;18.758;2023-06-22T06:18:45;10.60;;;9.90;;
37903;SDS011;23738;50.422;18.758;2023-06-22T06:21:12;9.70;;;8.80;;
37903;SDS011;23738;50.422;18.758;2023-06-22T06:23:39;9.10;;;8.40;;
37903;SDS011;23738;50.422;18.758;2023-06-22T06:26:08;9.20;;;8.30;;
37903;SDS011;23738;50.422;18.758;2023-06-22T06:28:35;8.50;;;7.90;;
37903;SDS011;23738;50.422;18.758;2023-06-22T06:31:02;9.00;;;8.40;;
37903;SDS011;23738;50.422;18.758;2023-06-22T06:33:33;8.50;;;7.90;;
37903;SDS011;23738;50.422;18.758;2023-06-22T06:36:00;8.10;;;7.50;;
37903;SDS011;23738;50.422;18.758;2023-06-22T06:38:29;7.80;;;7.30;;
37903;SDS011;23738;50.422;18.758;2023-06-22T06:40:56;7.80;;;7.20;;
37903;SDS011;23738;50.422;18.758;2023-06-22T06:43:24;7.50;;;6.80;;
37903;SDS011;23738;50.422;18.758;2023-06-22T06:45:51;7.40;;;6.70;;
37903;SDS011;23738;50.422;18.758;2023-06-22T06:48:19;6.80;;;6.10;;
37903;SDS011;23738;50.422;18.758;2023-06-22T06:50:46;6.30;;;5.70;;
37903;SDS011;23738;50.422;18.758;2023-06-22T06:53:13;6.60;;;6.10;;
37903;SDS011;23738;50.422;18.758;2023-06-22T06:55:41;6.30;;;5.80;;
37903;SDS011;23738;50.422;18.758;2023-06-22T06:58:11;6.30;;;5.80;;
37903;SDS011;23738;50.422;18.758;2023-06-22T07:00:39;6.00;;;5.60;;
37903;SDS011;23738;50.422;18.758;2023-06-22T07:03:06;5.80;;;5.40;;
37903;SDS011;23738;50.422;18.758;2023-06-22T07:05:34;5.60;;;5.20;;
37903;SDS011;23738;50.422;18.758;2023-06-22T07:08:02;6.00;;;5.60;;
37903;SDS011;23738;50.422;18.758;2023-06-22T07:10:29;6.10;;;5.70;;
37903;SDS011;23738;50.422;18.758;2023-06-22T07:12:57;5.70;;;5.20;;
37903;SDS011;23738;50.422;18.758;2023-06-22T07:15:24;6.20;;;5.70;;
37903;SDS011;23738;50.422;18.758;2023-06-22T07:17:52;6.20;;;5.40;;
37903;SDS011;23738;50.422;18.758;2023-06-22T07:20:19;7.40;;;5.60;;
37903;SDS011;23738;50.422;18.758;2023-06-22T07:22:46;6.10;;;5.60;;
37903;SDS011;23738;50.422;18.758;2023-06-22T07:25:13;6.50;;;6.00;;
37903;SDS011;23738;50.422;18.758;2023-06-22T07:27:44;6.50;;;5.50;;
37903;SDS011;23738;50.422;18.758;2023-06-22T07:30:13;6.30;;;5.80;;
37903;SDS011;23738;50.422;18.758;2023-06-22T07:32:40;5.50;;;4.40;;
37903;SDS011;23738;50.422;18.758;2023-06-22T07:35:08;6.10;;;5.50;;
37903;SDS011;23738;50.422;18.758;2023-06-22T07:37:36;5.70;;;5.20;;
37903;SDS011;23738;50.422;18.758;2023-06-22T07:40:04;5.10;;;4.70;;
37903;SDS011;23738;50.422;18.758;2023-06-22T07:42:34;5.30;;;4.80;;
37903;SDS011;23738;50.422;18.758;2023-06-22T07:45:02;6.00;;;5.50;;
37903;SDS011;23738;50.422;18.758;2023-06-22T07:47:30;5.40;;;5.00;;
37903;SDS011;23738;50.422;18.758;2023-06-22T07:50:01;5.50;;;5.10;;
37903;SDS011;23738;50.422;18.758;2023-06-22T07:52:29;5.50;;;5.00;;
37903;SDS011;23738;50.422;18.758;2023-06-22T07:54:57;5.10;;;4.70;;
37903;SDS011;23738;50.422;18.758;2023-06-22T07:57:25;5.10;;;4.70;;
37903;SDS011;23738;50.422;18.758;2023-06-22T07:59:59;5.50;;;4.80;;
37903;SDS011;23738;50.422;18.758;2023-06-22T08:02:32;7.60;;;5.00;;
37903;SDS011;23738;50.422;18.758;2023-06-22T08:04:59;5.40;;;5.00;;
37903;SDS011;23738;50.422;18.758;2023-06-22T08:07:26;4.80;;;4.40;;
37903;SDS011;23738;50.422;18.758;2023-06-22T08:09:54;6.10;;;5.10;;
37903;SDS011;23738;50.422;18.758;2023-06-22T08:12:21;5.30;;;4.80;;
37903;SDS011;23738;50.422;18.758;2023-06-22T08:14:48;5.60;;;4.60;;
37903;SDS011;23738;50.422;18.758;2023-06-22T08:17:16;5.50;;;5.10;;
37903;SDS011;23738;50.422;18.758;2023-06-22T08:19:43;5.30;;;4.90;;
37903;SDS011;23738;50.422;18.758;2023-06-22T08:22:10;5.40;;;5.00;;
37903;SDS011;23738;50.422;18.758;2023-06-22T08:24:37;5.00;;;4.70;;
37903;SDS011;23738;50.422;18.758;2023-06-22T08:27:07;5.40;;;4.90;;
37903;SDS011;23738;50.422;18.758;2023-06-22T08:29:35;4.70;;;4.40;;
37903;SDS011;23738;50.422;18.758;2023-06-22T08:32:03;6.00;;;4.90;;
37903;SDS011;23738;50.422;18.758;2023-06-22T08:34:31;5.00;;;4.60;;
37903;SDS011;23738;50.422;18.758;2023-06-22T08:36:58;5.30;;;4.90;;
37903;SDS011;23738;50.422;18.758;2023-06-22T08:39:25;5.50;;;5.10;;
37903;SDS011;23738;50.422;18.758;2023-06-22T08:41:53;4.70;;;4.40;;
37903;SDS011;23738;50.422;18.758;2023-06-22T08:44:20;5.10;;;4.80;;
37903;SDS011;23738;50.422;18.758;2023-06-22T08:46:48;4.90;;;4.60;;
37903;SDS011;23738;50.422;18.758;2023-06-22T08:49:15;5.00;;;4.60;;
37903;SDS011;23738;50.422;18.758;2023-06-22T08:51:42;4.40;;;4.10;;
37903;SDS011;23738;50.422;18.758;2023-06-22T08:54:11;4.70;;;4.40;;
37903;SDS011;23738;50.422;18.758;2023-06-22T08:56:39;4.90;;;4.60;;
37903;SDS011;23738;50.422;18.758;2023-06-22T08:59:09;4.80;;;4.30;;
37903;SDS011;23738;50.422;18.758;2023-06-22T09:01:37;4.70;;;4.30;;
37903;SDS011;23738;50.422;18.758;2023-06-22T09:04:04;4.60;;;4.20;;
37903;SDS011;23738;50.422;18.758;2023-06-22T09:06:35;5.70;;;4.20;;
37903;SDS011;23738;50.422;18.758;2023-06-22T09:09:07;4.50;;;4.00;;
37903;SDS011;23738;50.422;18.758;2023-06-22T09:11:34;4.80;;;4.30;;
37903;SDS011;23738;50.422;18.758;2023-06-22T09:14:01;4.80;;;4.40;;
37903;SDS011;23738;50.422;18.758;2023-06-22T09:16:29;4.50;;;4.10;;
37903;SDS011;23738;50.422;18.758;2023-06-22T09:18:57;5.10;;;4.60;;
37903;SDS011;23738;50.422;18.758;2023-06-22T09:21:24;4.30;;;4.00;;
37903;SDS011;23738;50.422;18.758;2023-06-22T09:23:52;4.50;;;4.30;;
37903;SDS011;23738;50.422;18.758;2023-06-22T09:26:19;7.00;;;4.70;;
37903;SDS011;23738;50.422;18.758;2023-06-22T09:28:48;4.50;;;4.20;;
37903;SDS011;23738;50.422;18.758;2023-06-22T09:31:15;4.00;;;3.70;;
37903;SDS011;23738;50.422;18.758;2023-06-22T09:33:43;4.60;;;4.20;;
37903;SDS011;23738;50.422;18.758;2023-06-22T09:36:10;4.60;;;4.30;;
37903;SDS011;23738;50.422;18.758;2023-06-22T09:38:37;4.70;;;3.80;;
37903;SDS011;23738;50.422;18.758;2023-06-22T09:41:05;4.40;;;4.00;;
37903;SDS011;23738;50.422;18.758;2023-06-22T09:43:32;4.40;;;4.10;;
37903;SDS011;23738;50.422;18.758;2023-06-22T09:46:01;4.40;;;4.00;;
37903;SDS011;23738;50.422;18.758;2023-06-22T09:48:28;4.40;;;3.90;;
37903;SDS011;23738;50.422;18.758;2023-06-22T09:50:56;4.00;;;3.70;;
37903;SDS011;23738;50.422;18.758;2023-06-22T09:53:23;4.30;;;3.70;;
37903;SDS011;23738;50.422;18.758;2023-06-22T09:55:51;4.30;;;4.00;;
37903;SDS011;23738;50.422;18.758;2023-06-22T09:58:18;5.30;;;4.20;;
37903;SDS011;23738;50.422;18.758;2023-06-22T10:00:46;3.90;;;3.60;;
37903;SDS011;23738;50.422;18.758;2023-06-22T10:03:13;4.10;;;3.30;;
37903;SDS011;23738;50.422;18.758;2023-06-22T10:05:41;3.80;;;3.50;;
37903;SDS011;23738;50.422;18.758;2023-06-22T10:08:08;4.40;;;3.40;;
37903;SDS011;23738;50.422;18.758;2023-06-22T10:10:36;3.60;;;3.40;;
37903;SDS011;23738;50.422;18.758;2023-06-22T10:13:08;4.50;;;4.10;;
37903;SDS011;23738;50.422;18.758;2023-06-22T10:15:36;3.80;;;3.60;;
37903;SDS011;23738;50.422;18.758;2023-06-22T10:18:04;3.80;;;3.60;;
37903;SDS011;23738;50.422;18.758;2023-06-22T10:20:31;4.10;;;3.90;;
37903;SDS011;23738;50.422;18.758;2023-06-22T10:22:59;3.80;;;3.50;;
37903;SDS011;23738;50.422;18.758;2023-06-22T10:25:26;4.00;;;3.70;;
37903;SDS011;23738;50.422;18.758;2023-06-22T10:27:53;3.80;;;3.50;;
37903;SDS011;23738;50.422;18.758;2023-06-22T10:30:21;4.60;;;3.80;;
37903;SDS011;23738;50.422;18.758;2023-06-22T10:32:49;4.30;;;4.00;;
37903;SDS011;23738;50.422;18.758;2023-06-22T10:35:16;4.00;;;3.70;;
37903;SDS011;23738;50.422;18.758;2023-06-22T10:37:43;3.80;;;3.50;;
37903;SDS011;23738;50.422;18.758;2023-06-22T10:40:13;3.80;;;3.60;;
37903;SDS011;23738;50.422;18.758;2023-06-22T10:42:41;3.90;;;3.60;;
37903;SDS011;23738;50.422;18.758;2023-06-22T10:45:09;3.80;;;3.50;;
37903;SDS011;23738;50.422;18.758;2023-06-22T10:47:37;3.80;;;3.50;;
37903;SDS011;23738;50.422;18.758;2023-06-22T10:50:08;4.10;;;3.80;;
37903;SDS011;23738;50.422;18.758;2023-06-22T10:52:36;4.10;;;3.90;;
37903;SDS011;23738;50.422;18.758;2023-06-22T10:55:04;4.10;;;3.70;;
37903;SDS011;23738;50.422;18.758;2023-06-22T10:57:32;3.40;;;3.20;;
37903;SDS011;23738;50.422;18.758;2023-06-22T10:59:59;4.00;;;3.70;;
37903;SDS011;23738;50.422;18.758;2023-06-22T11:02:27;3.70;;;3.40;;
37903;SDS011;23738;50.422;18.758;2023-06-22T11:04:54;3.30;;;3.10;;
37903;SDS011;23738;50.422;18.758;2023-06-22T11:07:21;4.20;;;3.90;;
37903;SDS011;23738;50.422;18.758;2023-06-22T11:09:49;3.80;;;3.40;;
37903;SDS011;23738;50.422;18.758;2023-06-22T11:12:17;3.90;;;3.50;;
37903;SDS011;23738;50.422;18.758;2023-06-22T11:14:44;3.10;;;2.80;;
37903;SDS011;23738;50.422;18.758;2023-06-22T11:17:11;4.40;;;3.60;;
37903;SDS011;23738;50.422;18.758;2023-06-22T11:19:39;3.80;;;3.60;;
37903;SDS011;23738;50.422;18.758;2023-06-22T11:22:06;3.40;;;3.20;;
37903;SDS011;23738;50.422;18.758;2023-06-22T11:24:33;3.70;;;3.50;;
37903;SDS011;23738;50.422;18.758;2023-06-22T11:27:01;3.80;;;3.30;;
37903;SDS011;23738;50.422;18.758;2023-06-22T11:29:28;4.00;;;3.70;;
37903;SDS011;23738;50.422;18.758;2023-06-22T11:31:56;4.00;;;3.70;;
37903;SDS011;23738;50.422;18.758;2023-06-22T11:34:24;4.30;;;3.40;;
37903;SDS011;23738;50.422;18.758;2023-06-22T11:36:51;3.70;;;3.40;;
37903;SDS011;23738;50.422;18.758;2023-06-22T11:39:19;4.00;;;3.60;;
37903;SDS011;23738;50.422;18.758;2023-06-22T11:41:46;3.80;;;3.50;;
37903;SDS011;23738;50.422;18.758;2023-06-22T11:44:14;3.30;;;3.10;;
37903;SDS011;23738;50.422;18.758;2023-06-22T11:46:42;3.60;;;3.30;;
37903;SDS011;23738;50.422;18.758;2023-06-22T11:49:09;3.50;;;3.20;;
37903;SDS011;23738;50.422;18.758;2023-06-22T11:51:36;3.40;;;3.20;;
37903;SDS011;23738;50.422;18.758;2023-06-22T11:54:04;4.10;;;3.40;;
37903;SDS011;23738;50.422;18.758;2023-06-22T11:56:32;3.60;;;3.40;;
37903;SDS011;23738;50.422;18.758;2023-06-22T11:58:59;3.70;;;3.30;;
37903;SDS011;23738;50.422;18.758;2023-06-22T12:01:27;3.40;;;3.10;;
37903;SDS011;23738;50.422;18.758;2023-06-22T12:03:54;3.60;;;3.30;;
37903;SDS011;23738;50.422;18.758;2023-06-22T12:06:22;3.50;;;3.30;;
37903;SDS011;23738;50.422;18.758;2023-06-22T12:08:49;3.20;;;3.00;;
37903;SDS011;23738;50.422;18.758;2023-06-22T12:11:16;3.70;;;3.40;;
37903;SDS011;23738;50.422;18.758;2023-06-22T12:13:44;3.70;;;3.50;;
37903;SDS011;23738;50.422;18.758;2023-06-22T12:16:11;4.40;;;3.70;;
37903;SDS011;23738;50.422;18.758;2023-06-22T12:18:38;3.60;;;3.10;;
37903;SDS011;23738;50.422;18.758;2023-06-22T12:21:06;3.50;;;3.20;;
37903;SDS011;23738;50.422;18.758;2023-06-22T12:23:34;3.60;;;3.30;;
37903;SDS011;23738;50.422;18.758;2023-06-22T12:26:01;3.90;;;3.60;;
37903;SDS011;23738;50.422;18.758;2023-06-22T12:28:28;3.40;;;3.20;;
37903;SDS011;23738;50.422;18.758;2023-06-22T12:30:56;3.60;;;3.30;;
37903;SDS011;23738;50.422;18.758;2023-06-22T12:33:23;3.40;;;3.10;;
37903;SDS011;23738;50.422;18.758;2023-06-22T12:35:50;3.50;;;3.10;;
37903;SDS011;23738;50.422;18.758;2023-06-22T12:38:18;3.90;;;3.50;;
37903;SDS011;23738;50.422;18.758;2023-06-22T12:40:45;3.10;;;2.90;;
37903;SDS011;23738;50.422;18.758;2023-06-22T12:43:15;3.70;;;3.40;;
37903;SDS011;23738;50.422;18.758;2023-06-22T12:45:42;3.40;;;3.20;;
37903;SDS011;23738;50.422;18.758;2023-06-22T12:48:10;3.60;;;3.00;;
37903;SDS011;23738;50.422;18.758;2023-06-22T12:50:38;3.30;;;3.00;;
37903;SDS011;23738;50.422;18.758;2023-06-22T12:53:05;4.30;;;3.60;;
37903;SDS011;23738;50.422;18.758;2023-06-22T12:55:33;5.20;;;3.20;;
37903;SDS011;23738;50.422;18.758;2023-06-22T12:58:00;3.30;;;3.00;;
37903;SDS011;23738;50.422;18.758;2023-06-22T13:00:28;3.50;;;2.80;;
37903;SDS011;23738;50.422;18.758;2023-06-22T13:02:55;3.30;;;3.10;;
37903;SDS011;23738;50.422;18.758;2023-06-22T13:05:22;3.80;;;3.30;;
37903;SDS011;23738;50.422;18.758;2023-06-22T13:07:50;3.20;;;3.00;;
37903;SDS011;23738;50.422;18.758;2023-06-22T13:10:17;3.20;;;3.00;;
37903;SDS011;23738;50.422;18.758;2023-06-22T13:12:44;3.20;;;3.00;;
37903;SDS011;23738;50.422;18.758;2023-06-22T13:15:12;3.40;;;3.20;;
37903;SDS011;23738;50.422;18.758;2023-06-22T13:17:39;3.20;;;2.90;;
37903;SDS011;23738;50.422;18.758;2023-06-22T13:20:07;4.70;;;2.90;;
37903;SDS011;23738;50.422;18.758;2023-06-22T13:22:36;4.60;;;2.90;;
37903;SDS011;23738;50.422;18.758;2023-06-22T13:25:06;3.70;;;2.80;;
37903;SDS011;23738;50.422;18.758;2023-06-22T13:27:37;3.20;;;2.90;;
37903;SDS011;23738;50.422;18.758;2023-06-22T13:30:06;3.60;;;3.30;;
37903;SDS011;23738;50.422;18.758;2023-06-22T13:32:34;3.30;;;3.10;;
37903;SDS011;23738;50.422;18.758;2023-06-22T13:35:02;3.20;;;2.90;;
37903;SDS011;23738;50.422;18.758;2023-06-22T13:37:32;3.00;;;2.70;;
37903;SDS011;23738;50.422;18.758;2023-06-22T13:40:05;4.00;;;2.80;;
37903;SDS011;23738;50.422;18.758;2023-06-22T13:42:34;3.40;;;3.10;;
37903;SDS011;23738;50.422;18.758;2023-06-22T13:45:03;2.90;;;2.70;;
37903;SDS011;23738;50.422;18.758;2023-06-22T13:47:32;3.10;;;2.90;;
37903;SDS011;23738;50.422;18.758;2023-06-22T13:50:01;2.80;;;2.60;;
37903;SDS011;23738;50.422;18.758;2023-06-22T13:52:29;3.30;;;3.10;;
37903;SDS011;23738;50.422;18.758;2023-06-22T13:54:57;3.00;;;2.70;;
37903;SDS011;23738;50.422;18.758;2023-06-22T13:57:24;3.60;;;3.30;;
37903;SDS011;23738;50.422;18.758;2023-06-22T13:59:52;4.60;;;3.10;;
37903;SDS011;23738;50.422;18.758;2023-06-22T14:02:20;3.00;;;2.80;;
37903;SDS011;23738;50.422;18.758;2023-06-22T14:04:48;2.80;;;2.60;;
37903;SDS011;23738;50.422;18.758;2023-06-22T14:07:15;3.10;;;2.90;;
37903;SDS011;23738;50.422;18.758;2023-06-22T14:09:45;3.10;;;2.90;;
37903;SDS011;23738;50.422;18.758;2023-06-22T14:12:12;5.30;;;3.10;;
37903;SDS011;23738;50.422;18.758;2023-06-22T14:14:41;3.00;;;2.80;;
37903;SDS011;23738;50.422;18.758;2023-06-22T14:17:09;3.00;;;2.80;;
37903;SDS011;23738;50.422;18.758;2023-06-22T14:19:37;3.10;;;2.90;;
37903;SDS011;23738;50.422;18.758;2023-06-22T14:22:05;3.20;;;3.00;;
37903;SDS011;23738;50.422;18.758;2023-06-22T14:24:32;3.20;;;2.80;;
37903;SDS011;23738;50.422;18.758;2023-06-22T14:26:59;3.30;;;3.10;;
37903;SDS011;23738;50.422;18.758;2023-06-22T14:29:29;3.20;;;3.00;;
37903;SDS011;23738;50.422;18.758;2023-06-22T14:31:56;4.00;;;3.20;;
37903;SDS011;23738;50.422;18.758;2023-06-22T14:34:23;3.20;;;3.00;;
37903;SDS011;23738;50.422;18.758;2023-06-22T14:36:51;3.40;;;3.10;;
37903;SDS011;23738;50.422;18.758;2023-06-22T14:39:18;3.40;;;3.20;;
37903;SDS011;23738;50.422;18.758;2023-06-22T14:41:46;7.30;;;3.00;;
37903;SDS011;23738;50.422;18.758;2023-06-22T14:44:14;4.10;;;3.20;;
37903;SDS011;23738;50.422;18.758;2023-06-22T14:46:42;3.40;;;3.10;;
37903;SDS011;23738;50.422;18.758;2023-06-22T14:49:09;3.80;;;3.20;;